Time;durP1;ratioP1;P1;durP2;ratioP2;P2;SDS_P1;SDS_P2;PMS_P1;PMS_P2;Temp;Humidity;BMP_temperature;BMP_pressure;BME280_temperature;BME280_humidity;BME280_pressure;Samples;Min_cycle;Max_cycle;Signal;HPM_P1;HPM_P2
2022/08/13 00:01:41;;;;;;;5.20;2.90;;;22.40;99.90;;;;;;5094664;28;20101;-74
2022/08/13 00:04:09;;;;;;;6.95;2.95;;;22.30;99.90;;;;;;5094683;28;20052;-75
2022/08/13 00:09:06;;;;;;;4.20;2.60;;;22.50;99.90;;;;;;5094793;28;20044;-75
2022/08/13 00:14:23;;;;;;;4.50;2.97;;;22.20;99.90;;;;;;5093557;28;20048;-74
2022/08/13 00:16:50;;;;;;;6.57;2.92;;;22.20;99.90;;;;;;5092759;28;20066;-75
2022/08/13 00:19:16;;;;;;;7.38;3.00;;;22.10;99.90;;;;;;5094488;28;20044;-75
2022/08/13 00:21:42;;;;;;;6.38;2.90;;;22.00;99.90;;;;;;5094376;28;20040;-75
2022/08/13 00:24:08;;;;;;;8.07;3.10;;;22.10;99.90;;;;;;5094417;28;20040;-75
2022/08/13 00:26:34;;;;;;;6.60;2.95;;;22.00;99.90;;;;;;5094238;28;20040;-75
2022/08/13 00:29:01;;;;;;;6.05;3.20;;;22.00;99.90;;;;;;5094385;28;20389;-75
2022/08/13 00:31:28;;;;;;;9.88;3.17;;;21.90;99.90;;;;;;5075783;28;20514;-75
2022/08/13 00:33:54;;;;;;;4.00;2.97;;;21.90;99.90;;;;;;5093801;28;20048;-75
2022/08/13 00:36:21;;;;;;;5.65;2.92;;;21.90;99.90;;;;;;5094236;28;20109;-75
2022/08/13 00:38:48;;;;;;;8.52;2.90;;;21.90;99.90;;;;;;5094234;28;20070;-75
2022/08/13 00:41:37;;;;;;;4.93;2.90;;;22.10;99.90;;;;;;5093933;28;20072;-75
2022/08/13 00:44:01;;;;;;;5.55;3.13;;;21.80;99.90;;;;;;5093710;28;20052;-75
2022/08/13 00:46:27;;;;;;;7.13;3.00;;;21.80;99.90;;;;;;5093672;28;20055;-75
2022/08/13 00:48:54;;;;;;;5.90;3.30;;;21.80;99.90;;;;;;5093995;28;20061;-75
2022/08/13 00:51:21;;;;;;;6.63;3.15;;;21.70;99.90;;;;;;5093821;28;20070;-75
2022/08/13 00:53:48;;;;;;;6.97;3.65;;;21.70;99.90;;;;;;5093773;28;20444;-75
2022/08/13 00:56:14;;;;;;;4.97;2.95;;;21.70;99.90;;;;;;5093662;28;20109;-75
2022/08/13 00:58:41;;;;;;;5.68;2.92;;;21.70;99.90;;;;;;5093563;28;20039;-75
2022/08/13 01:01:07;;;;;;;7.40;3.33;;;21.70;99.90;;;;;;5093264;28;20083;-75
2022/08/13 01:03:35;;;;;;;6.35;3.17;;;21.70;99.90;;;;;;5093461;28;20079;-75
2022/08/13 01:06:03;;;;;;;5.43;3.03;;;21.60;99.90;;;;;;5093565;28;20044;-75
2022/08/13 01:08:34;;;;;;;4.63;2.97;;;21.60;99.90;;;;;;5092055;28;20048;-74
2022/08/13 01:11:11;;;;;;;11.82;3.55;;;21.50;99.90;;;;;;5093286;28;20054;-75
2022/08/13 01:13:39;;;;;;;6.10;3.53;;;21.50;99.90;;;;;;5093346;28;20048;-74
2022/08/13 01:16:08;;;;;;;6.80;3.40;;;21.40;99.90;;;;;;5093546;28;20047;-74
2022/08/13 01:18:39;;;;;;;8.43;3.33;;;21.40;99.90;;;;;;5093235;28;20130;-75
2022/08/13 01:21:17;;;;;;;5.18;3.20;;;21.40;99.90;;;;;;5093365;28;20047;-75
2022/08/13 01:23:45;;;;;;;4.97;3.15;;;21.40;99.90;;;;;;5093055;28;20036;-75
2022/08/13 01:26:13;;;;;;;9.30;3.45;;;21.40;99.90;;;;;;5092996;28;20043;-75
2022/08/13 01:28:40;;;;;;;8.80;3.65;;;21.40;99.90;;;;;;5093116;28;20048;-75
2022/08/13 01:31:06;;;;;;;5.32;3.70;;;21.40;99.90;;;;;;5093283;28;20087;-75
2022/08/13 01:33:36;;;;;;;5.38;3.40;;;21.40;99.90;;;;;;5092788;28;20056;-75
2022/08/13 01:36:05;;;;;;;8.15;3.30;;;21.30;99.90;;;;;;5093202;28;20128;-74
2022/08/13 01:38:30;;;;;;;5.75;3.65;;;21.30;99.90;;;;;;5093036;28;20094;-75
2022/08/13 01:40:56;;;;;;;6.80;3.30;;;21.20;99.90;;;;;;5075068;28;20044;-74
2022/08/13 01:43:28;;;;;;;6.68;3.40;;;21.20;99.90;;;;;;5075016;28;20577;-74
2022/08/13 01:45:54;;;;;;;7.10;4.03;;;21.20;99.90;;;;;;5092807;28;20484;-75
2022/08/13 01:51:13;;;;;;;6.53;3.30;;;21.10;99.90;;;;;;5074153;28;20087;-75
2022/08/13 01:53:39;;;;;;;9.00;3.63;;;21.10;99.90;;;;;;5074537;28;20044;-75
2022/08/13 01:56:05;;;;;;;5.97;3.50;;;21.00;99.90;;;;;;5092969;28;20040;-74
2022/08/13 01:58:30;;;;;;;6.43;3.72;;;21.00;99.90;;;;;;5093072;28;20119;-75
2022/08/13 02:00:59;;;;;;;6.30;3.55;;;21.00;99.90;;;;;;5074791;28;20493;-75
2022/08/13 02:03:25;;;;;;;7.03;3.63;;;20.90;99.90;;;;;;5110548;28;20088;-75
2022/08/13 02:05:52;;;;;;;6.97;3.50;;;20.90;99.90;;;;;;5113023;28;20131;-75
2022/08/13 02:08:23;;;;;;;5.45;3.47;;;20.90;99.90;;;;;;5113111;28;20051;-75
2022/08/13 02:10:52;;;;;;;4.95;3.50;;;20.90;99.90;;;;;;5094650;28;20092;-74
2022/08/13 02:13:29;;;;;;;10.02;3.42;;;20.90;99.90;;;;;;5109211;28;20036;-75
2022/08/13 02:15:55;;;;;;;6.25;3.65;;;20.90;99.90;;;;;;5108254;28;20485;-75
2022/08/13 02:18:24;;;;;;;6.38;3.25;;;20.90;99.90;;;;;;5092719;28;20047;-75
2022/08/13 02:20:59;;;;;;;7.25;3.30;;;20.90;99.90;;;;;;5092481;28;20060;-75
2022/08/13 02:23:27;;;;;;;6.80;3.58;;;20.90;99.90;;;;;;5092718;28;20047;-75
2022/08/13 02:25:53;;;;;;;6.50;3.60;;;20.90;99.90;;;;;;5091628;28;20134;-75
2022/08/13 02:28:21;;;;;;;6.70;3.50;;;20.90;99.90;;;;;;5092225;28;20380;-75
2022/08/13 02:30:48;;;;;;;6.15;3.50;;;20.90;99.90;;;;;;5092302;28;20052;-74
2022/08/13 02:33:15;;;;;;;6.85;3.72;;;20.90;99.90;;;;;;5092290;28;20420;-75
2022/08/13 02:35:43;;;;;;;8.55;3.47;;;20.90;99.90;;;;;;5092226;28;20055;-75
2022/08/13 02:38:11;;;;;;;8.45;3.65;;;20.90;99.90;;;;;;5092600;28;20396;-75
2022/08/13 02:43:23;;;;;;;8.60;4.00;;;20.90;99.90;;;;;;5092508;28;20052;-75
2022/08/13 02:45:49;;;;;;;7.00;3.70;;;20.90;99.90;;;;;;5108975;28;20136;-74
2022/08/13 02:48:17;;;;;;;5.90;3.88;;;20.90;99.90;;;;;;5112819;28;20479;-75
2022/08/13 02:50:45;;;;;;;13.88;3.58;;;20.90;99.90;;;;;;5094258;28;20052;-75
2022/08/13 02:53:13;;;;;;;15.75;3.60;;;20.90;99.90;;;;;;5112892;28;20075;-75
2022/08/13 02:55:41;;;;;;;7.53;3.80;;;20.90;99.90;;;;;;5112690;28;20043;-75
2022/08/13 02:58:07;;;;;;;6.75;4.00;;;20.90;99.90;;;;;;5112654;28;20058;-75
2022/08/13 03:00:33;;;;;;;10.48;3.72;;;20.80;99.90;;;;;;5110487;28;20043;-75
2022/08/13 03:02:59;;;;;;;6.95;3.60;;;20.70;99.90;;;;;;5113122;28;20139;-74
2022/08/13 03:05:30;;;;;;;7.53;3.80;;;20.70;99.90;;;;;;5116170;28;20048;-75
2022/08/13 03:07:56;;;;;;;6.65;3.45;;;20.70;99.90;;;;;;5097906;28;20066;-74
2022/08/13 03:10:25;;;;;;;8.88;3.75;;;20.70;99.90;;;;;;5098084;28;20375;-75
2022/08/13 03:12:58;;;;;;;8.30;3.72;;;20.70;99.90;;;;;;5115983;28;20043;-75
2022/08/13 03:15:25;;;;;;;8.98;3.97;;;20.70;99.90;;;;;;5115716;28;20031;-75
2022/08/13 03:17:50;;;;;;;6.70;3.50;;;20.70;99.90;;;;;;5116082;28;20403;-75
2022/08/13 03:20:16;;;;;;;9.68;3.60;;;20.70;99.90;;;;;;5116036;28;20092;-75
2022/08/13 03:22:58;;;;;;;8.35;3.80;;;20.60;99.90;;;;;;5115826;28;20050;-75
2022/08/13 03:25:26;;;;;;;8.38;3.30;;;20.60;99.90;;;;;;5115570;28;20071;-75
2022/08/13 03:27:53;;;;;;;7.40;3.60;;;20.60;99.90;;;;;;5115898;28;20040;-75
2022/08/13 03:30:22;;;;;;;7.85;3.67;;;20.50;99.90;;;;;;5104029;28;20044;-75
2022/08/13 03:32:49;;;;;;;6.65;3.45;;;20.50;99.90;;;;;;5095171;28;20055;-75
2022/08/13 03:35:17;;;;;;;8.57;3.63;;;20.70;99.90;;;;;;5095266;28;20399;-75
2022/08/13 03:37:46;;;;;;;6.82;3.30;;;20.50;99.90;;;;;;5094879;28;20415;-74
2022/08/13 03:40:14;;;;;;;7.10;3.67;;;20.80;99.90;;;;;;5077058;28;20051;-75
2022/08/13 03:42:40;;;;;;;7.90;3.90;;;20.50;99.90;;;;;;5094825;28;20514;-74
2022/08/13 03:45:07;;;;;;;6.25;3.63;;;20.40;99.90;;;;;;5095211;28;20044;-75
2022/08/13 03:47:32;;;;;;;7.80;3.58;;;20.50;99.90;;;;;;5095123;28;20072;-75
2022/08/13 03:50:04;;;;;;;6.60;3.40;;;20.50;99.90;;;;;;5094841;28;20084;-75
2022/08/13 03:52:30;;;;;;;9.02;3.90;;;20.40;99.90;;;;;;5094605;28;20079;-75
2022/08/13 03:54:57;;;;;;;10.60;3.80;;;20.50;99.90;;;;;;5094690;28;20036;-75
2022/08/13 03:57:23;;;;;;;6.78;3.47;;;20.50;99.90;;;;;;5094521;28;20102;-75
2022/08/13 03:59:49;;;;;;;7.63;3.60;;;20.50;99.90;;;;;;5094537;28;20510;-75
2022/08/13 04:02:16;;;;;;;8.48;4.00;;;20.40;99.90;;;;;;5076629;28;20040;-75
2022/08/13 04:04:46;;;;;;;7.82;3.80;;;20.40;99.90;;;;;;5094420;28;20044;-74
2022/08/13 04:07:16;;;;;;;9.48;4.15;;;20.40;99.90;;;;;;5094622;28;20036;-75
2022/08/13 04:09:43;;;;;;;6.68;3.80;;;20.40;99.90;;;;;;5076415;28;20089;-74
2022/08/13 04:12:11;;;;;;;9.52;4.05;;;20.40;99.90;;;;;;5092014;28;20036;-75
2022/08/13 04:14:39;;;;;;;8.25;4.10;;;20.40;99.90;;;;;;5109863;28;20051;-75
2022/08/13 04:17:08;;;;;;;6.97;3.80;;;20.40;99.90;;;;;;5094459;28;20040;-75
2022/08/13 04:19:36;;;;;;;8.60;3.67;;;20.40;99.90;;;;;;5094297;28;20044;-74
2022/08/13 04:22:02;;;;;;;6.85;3.70;;;20.40;99.90;;;;;;5094402;28;20051;-74
2022/08/13 04:24:28;;;;;;;8.45;4.10;;;20.30;99.90;;;;;;5094052;28;20040;-74
2022/08/13 04:26:54;;;;;;;6.97;4.13;;;20.20;99.90;;;;;;5094193;28;20404;-74
2022/08/13 04:29:20;;;;;;;6.70;4.00;;;20.50;99.90;;;;;;5075803;28;20059;-75
2022/08/13 04:31:46;;;;;;;9.45;4.07;;;20.20;99.90;;;;;;5094323;28;20048;-74
2022/08/13 04:34:11;;;;;;;9.35;3.88;;;20.20;99.90;;;;;;5093868;28;20048;-75
2022/08/13 04:36:37;;;;;;;6.57;3.70;;;20.20;99.90;;;;;;5093892;28;20048;-75
2022/08/13 04:39:03;;;;;;;6.00;3.72;;;20.20;99.90;;;;;;5092986;28;20039;-75
2022/08/13 04:41:29;;;;;;;11.65;4.15;;;20.10;99.90;;;;;;5109410;28;20500;-75
2022/08/13 04:43:54;;;;;;;7.35;3.58;;;20.10;99.90;;;;;;5093697;28;20372;-75
2022/08/13 04:46:20;;;;;;;7.93;3.90;;;20.10;99.90;;;;;;5093874;28;20043;-75
2022/08/13 04:48:46;;;;;;;5.80;3.58;;;20.20;99.90;;;;;;5093995;28;20048;-75
2022/08/13 04:51:12;;;;;;;8.18;3.90;;;20.10;99.90;;;;;;5109310;28;20481;-75
2022/08/13 04:53:40;;;;;;;7.90;4.13;;;20.10;99.90;;;;;;5093726;28;20036;-75
2022/08/13 04:56:06;;;;;;;9.85;3.92;;;20.10;99.90;;;;;;5093463;28;20044;-75
2022/08/13 04:58:35;;;;;;;9.05;3.90;;;20.20;99.90;;;;;;5093751;28;20590;-75
2022/08/13 05:01:09;;;;;;;7.72;3.80;;;20.20;99.90;;;;;;5093628;28;20047;-75
2022/08/13 05:03:38;;;;;;;5.93;3.50;;;20.20;99.90;;;;;;5109441;28;20044;-74
2022/08/13 05:06:04;;;;;;;7.20;3.60;;;20.20;99.90;;;;;;5093447;28;20428;-75
2022/08/13 05:08:33;;;;;;;8.60;3.50;;;20.30;99.90;;;;;;5093393;28;20119;-75
2022/08/13 05:11:00;;;;;;;6.82;3.75;;;20.30;99.90;;;;;;5093208;28;20055;-75
2022/08/13 05:13:28;;;;;;;6.25;3.70;;;20.30;99.90;;;;;;5093068;28;20043;-74
2022/08/13 05:15:56;;;;;;;7.93;3.80;;;20.30;99.90;;;;;;5093256;28;20059;-75
2022/08/13 05:18:23;;;;;;;6.88;3.58;;;20.30;99.90;;;;;;5109074;28;20048;-75
2022/08/13 05:20:50;;;;;;;8.23;3.70;;;20.40;99.90;;;;;;5093147;28;20048;-75
2022/08/13 05:23:16;;;;;;;8.48;3.67;;;20.30;99.90;;;;;;5093206;28;20044;-75
2022/08/13 05:25:42;;;;;;;9.48;4.10;;;20.30;99.90;;;;;;5092177;28;20092;-75
2022/08/13 05:28:10;;;;;;;6.70;3.70;;;20.70;99.90;;;;;;5093463;28;20392;-75
2022/08/13 05:30:38;;;;;;;8.43;4.18;;;20.30;99.90;;;;;;5073765;28;20055;-75
2022/08/13 05:33:26;;;;;;;7.22;3.88;;;20.80;99.90;;;;;;5092979;28;20051;-74
2022/08/13 05:35:55;;;;;;;8.77;3.50;;;20.40;99.90;;;;;;5074773;28;20090;-75
2022/08/13 05:38:23;;;;;;;5.65;3.83;;;20.40;99.90;;;;;;5091605;28;20094;-75
2022/08/13 05:41:04;;;;;;;12.45;4.28;;;20.40;99.90;;;;;;5092395;28;20527;-75
2022/08/13 05:43:33;;;;;;;6.88;3.75;;;20.40;99.90;;;;;;5092919;28;20044;-75
2022/08/13 05:46:05;;;;;;;10.45;3.80;;;20.40;99.90;;;;;;5092703;28;20083;-75
2022/08/13 05:48:33;;;;;;;5.72;3.58;;;20.50;99.90;;;;;;5092951;28;20032;-75
2022/08/13 05:51:00;;;;;;;8.15;3.58;;;20.50;99.90;;;;;;5092554;28;20052;-75
2022/08/13 05:53:27;;;;;;;7.72;3.38;;;20.50;99.90;;;;;;5092867;28;20400;-75
2022/08/13 05:55:54;;;;;;;6.85;3.30;;;20.50;99.90;;;;;;5092729;28;20044;-75
2022/08/13 05:58:21;;;;;;;8.40;3.63;;;20.60;99.90;;;;;;5092915;28;20103;-75
2022/08/13 06:03:32;;;;;;;6.60;3.33;;;20.60;99.90;;;;;;5092561;28;20044;-75
2022/08/13 06:05:59;;;;;;;7.90;3.33;;;20.70;99.90;;;;;;5074485;28;20516;-75
2022/08/13 06:08:31;;;;;;;7.40;3.53;;;20.70;99.90;;;;;;5074811;28;20040;-75
2022/08/13 06:10:58;;;;;;;9.27;3.85;;;20.70;99.90;;;;;;5092635;28;20109;-75
2022/08/13 06:13:25;;;;;;;5.57;3.30;;;20.80;99.90;;;;;;5092770;28;20115;-75
2022/08/13 06:15:58;;;;;;;5.53;3.15;;;20.90;99.90;;;;;;5092203;28;20488;-75
2022/08/13 06:18:29;;;;;;;8.13;3.47;;;20.90;99.90;;;;;;5092355;28;20496;-75
2022/08/13 06:20:57;;;;;;;11.23;3.30;;;21.00;99.90;;;;;;5092550;28;20129;-75
2022/08/13 06:23:24;;;;;;;7.30;3.20;;;21.10;99.90;;;;;;5092647;28;20082;-75
2022/08/13 06:25:52;;;;;;;6.10;3.20;;;21.10;99.90;;;;;;5108022;28;20055;-75
2022/08/13 06:28:26;;;;;;;6.05;3.13;;;21.20;99.90;;;;;;5092518;28;20048;-75
2022/08/13 06:31:04;;;;;;;9.05;3.65;;;21.30;99.90;;;;;;5092191;28;20063;-75
2022/08/13 06:33:31;;;;;;;9.60;3.00;;;21.30;99.90;;;;;;5092241;28;20059;-74
2022/08/13 06:35:59;;;;;;;7.90;3.63;;;21.40;99.90;;;;;;5092438;28;20079;-75
2022/08/13 06:38:31;;;;;;;7.90;3.08;;;21.60;99.90;;;;;;5110760;28;20048;-75
2022/08/13 06:40:59;;;;;;;9.48;3.20;;;21.50;99.90;;;;;;5096169;28;20428;-75
2022/08/13 06:43:35;;;;;;;7.15;3.10;;;21.50;99.90;;;;;;5096035;28;20040;-75
2022/08/13 06:46:03;;;;;;;9.63;3.50;;;21.60;99.90;;;;;;5096203;28;20055;-75
2022/08/13 06:48:29;;;;;;;5.22;2.97;;;21.70;99.90;;;;;;5096387;28;20052;-75
2022/08/13 06:50:55;;;;;;;10.65;2.80;;;21.80;99.90;;;;;;5077879;28;20040;-75
2022/08/13 06:53:21;;;;;;;6.35;3.00;;;21.80;99.90;;;;;;5095926;28;20054;-75
2022/08/13 06:55:49;;;;;;;9.93;3.42;;;21.90;99.90;;;;;;5095686;28;20118;-75
2022/08/13 06:58:16;;;;;;;7.40;3.00;;;22.10;99.90;;;;;;5096005;28;20522;-75
2022/08/13 07:00:43;;;;;;;8.18;3.15;;;22.00;99.90;;;;;;5092986;28;20055;-75
2022/08/13 07:03:12;;;;;;;6.03;3.05;;;22.20;99.90;;;;;;5094470;28;20084;-75
2022/08/13 07:05:41;;;;;;;9.95;3.28;;;22.20;99.90;;;;;;5094766;28;20087;-75
2022/08/13 07:08:09;;;;;;;10.05;3.00;;;22.30;99.90;;;;;;5095491;28;20036;-75
2022/08/13 07:10:36;;;;;;;5.60;2.80;;;22.30;99.90;;;;;;5095244;28;20047;-75
2022/08/13 07:13:05;;;;;;;8.82;3.00;;;22.40;99.90;;;;;;5095785;28;20048;-75
2022/08/13 07:15:31;;;;;;;5.32;2.63;;;22.70;99.90;;;;;;5095583;28;20123;-75
2022/08/13 07:17:58;;;;;;;7.40;2.72;;;22.50;99.90;;;;;;5095545;28;20044;-75
2022/08/13 07:20:25;;;;;;;6.60;3.00;;;22.60;99.70;;;;;;5095333;28;20110;-75
2022/08/13 07:22:55;;;;;;;5.20;2.50;;;22.70;99.80;;;;;;5111312;28;20052;-75
2022/08/13 07:25:26;;;;;;;5.10;2.70;;;22.80;99.90;;;;;;5095108;28;20043;-75
2022/08/13 07:27:52;;;;;;;7.93;2.58;;;22.90;99.80;;;;;;5095226;28;20044;-75
2022/08/13 07:30:19;;;;;;;7.32;2.53;;;23.00;99.70;;;;;;5095283;28;20496;-75
2022/08/13 07:32:45;;;;;;;7.47;2.45;;;23.00;99.70;;;;;;5094194;28;20063;-75
2022/08/13 07:35:12;;;;;;;6.43;2.30;;;23.10;99.20;;;;;;5094691;28;20048;-75
2022/08/13 07:37:41;;;;;;;7.47;2.33;;;23.20;99.10;;;;;;5095130;28;20120;-75
2022/08/13 07:40:08;;;;;;;7.20;2.25;;;23.40;98.50;;;;;;5094671;28;20048;-75
2022/08/13 07:42:41;;;;;;;6.15;2.33;;;23.50;98.10;;;;;;5093557;28;20054;-75
2022/08/13 07:45:11;;;;;;;6.78;2.13;;;23.70;97.80;;;;;;5095163;28;20125;-75
2022/08/13 07:47:39;;;;;;;11.00;2.50;;;23.70;97.50;;;;;;5110863;28;20057;-75
2022/08/13 07:50:10;;;;;;;5.63;2.20;;;23.80;97.60;;;;;;5094570;28;20439;-76
2022/08/13 07:52:38;;;;;;;4.40;2.20;;;23.90;97.50;;;;;;5094566;28;20044;-76
2022/08/13 07:55:05;;;;;;;8.93;2.10;;;24.10;96.90;;;;;;5094803;28;20093;-75
2022/08/13 07:57:32;;;;;;;5.35;2.00;;;24.20;96.70;;;;;;5094527;28;20054;-75
2022/08/13 07:59:58;;;;;;;9.60;2.13;;;24.30;96.50;;;;;;5094710;28;20079;-75
2022/08/13 08:02:27;;;;;;;7.43;2.10;;;24.40;96.20;;;;;;5094768;28;20432;-75
2022/08/13 08:04:56;;;;;;;5.35;2.00;;;24.40;95.80;;;;;;5094335;28;20093;-75
2022/08/13 08:07:26;;;;;;;6.55;2.28;;;24.60;95.40;;;;;;5094492;28;20098;-75
2022/08/13 08:09:52;;;;;;;7.57;2.13;;;24.70;95.60;;;;;;5094647;28;20040;-75
2022/08/13 08:12:35;;;;;;;8.85;2.20;;;24.70;95.60;;;;;;5094513;28;20408;-76
2022/08/13 08:15:04;;;;;;;7.95;1.90;;;24.90;95.80;;;;;;5094596;28;20406;-74
2022/08/13 08:17:31;;;;;;;6.30;2.00;;;24.90;95.40;;;;;;5094176;28;20442;-76
2022/08/13 08:19:57;;;;;;;6.78;2.20;;;25.00;95.60;;;;;;5075699;28;20123;-74
2022/08/13 08:22:23;;;;;;;3.38;1.73;;;25.10;94.90;;;;;;5094074;28;20075;-74
2022/08/13 08:24:50;;;;;;;3.67;2.00;;;25.20;94.70;;;;;;5109694;28;20040;-74
2022/08/13 08:27:17;;;;;;;4.97;2.08;;;25.30;94.60;;;;;;5108910;28;20055;-76
2022/08/13 08:29:45;;;;;;;4.57;1.95;;;25.40;94.50;;;;;;5093374;28;20043;-73
2022/08/13 08:32:12;;;;;;;10.43;1.80;;;25.60;94.20;;;;;;5093834;28;20453;-74
2022/08/13 08:34:40;;;;;;;3.67;2.10;;;25.60;93.90;;;;;;5109192;28;20060;-77
2022/08/13 08:37:07;;;;;;;6.25;2.00;;;25.80;94.00;;;;;;5094019;28;20058;-74
2022/08/13 08:42:38;;;;;;;3.40;1.92;;;26.00;93.40;;;;;;5093964;28;20131;-74
2022/08/13 08:45:11;;;;;;;4.70;1.90;;;26.10;93.40;;;;;;5109195;28;20126;-75
2022/08/13 08:47:37;;;;;;;5.30;1.90;;;26.20;92.90;;;;;;5093855;28;20093;-75
2022/08/13 08:50:05;;;;;;;5.00;1.95;;;26.20;93.30;;;;;;5093808;28;20454;-75
2022/08/13 08:55:16;;;;;;;6.65;1.80;;;26.50;92.50;;;;;;5093429;28;20040;-75
2022/08/13 08:57:44;;;;;;;4.18;1.67;;;26.70;92.20;;;;;;5093051;28;20400;-75
2022/08/13 09:00:20;;;;;;;5.15;1.67;;;26.70;92.10;;;;;;5092972;28;20546;-75
2022/08/13 09:02:50;;;;;;;5.32;1.92;;;26.90;92.00;;;;;;5093217;28;20073;-75
2022/08/13 09:05:22;;;;;;;5.28;2.00;;;26.90;91.70;;;;;;5093331;28;20047;-75
2022/08/13 09:07:49;;;;;;;5.50;2.00;;;27.10;91.10;;;;;;5109003;28;20044;-75
2022/08/13 09:10:16;;;;;;;6.82;2.00;;;27.20;91.10;;;;;;5093162;28;20403;-75
2022/08/13 09:12:44;;;;;;;5.57;1.98;;;27.40;90.80;;;;;;5074815;28;20055;-77
2022/08/13 09:15:15;;;;;;;6.95;1.70;;;27.60;89.20;;;;;;5093456;28;20028;-74
2022/08/13 09:17:42;;;;;;;3.75;1.90;;;27.70;89.60;;;;;;5093088;28;20388;-74
2022/08/13 09:20:16;;;;;;;6.00;1.75;;;27.90;89.40;;;;;;5093455;28;20103;-74
2022/08/13 09:22:44;;;;;;;3.60;1.90;;;28.10;89.10;;;;;;5092981;28;20047;-74
2022/08/13 09:25:13;;;;;;;3.90;1.88;;;28.30;88.70;;;;;;5092780;28;20150;-75
2022/08/13 09:27:39;;;;;;;4.88;1.80;;;28.40;89.00;;;;;;5108583;28;20117;-77
2022/08/13 09:30:06;;;;;;;5.95;2.00;;;28.60;89.30;;;;;;5074841;28;20039;-77
2022/08/13 09:32:32;;;;;;;9.98;1.73;;;28.80;88.00;;;;;;5092434;28;20080;-76
2022/08/13 09:34:58;;;;;;;5.95;1.65;;;28.90;85.50;;;;;;5092847;28;20459;-76
2022/08/13 09:37:25;;;;;;;4.95;1.65;;;29.10;84.50;;;;;;5092749;28;20061;-76
2022/08/13 09:39:56;;;;;;;5.38;1.77;;;29.30;83.80;;;;;;5092486;28;20048;-76
2022/08/13 09:42:28;;;;;;;3.58;1.55;;;29.50;81.60;;;;;;5092900;28;20032;-77
2022/08/13 09:44:59;;;;;;;4.97;1.73;;;29.70;81.10;;;;;;5103283;28;20039;-77
2022/08/13 09:47:25;;;;;;;2.67;1.60;;;30.30;80.90;;;;;;5112965;28;20051;-76
2022/08/13 09:49:51;;;;;;;3.75;1.70;;;31.10;80.60;;;;;;5112489;28;20136;-77
2022/08/13 09:52:19;;;;;;;5.47;1.50;;;32.30;79.80;;;;;;5112507;28;20078;-76
2022/08/13 09:54:44;;;;;;;4.90;1.63;;;33.60;75.30;;;;;;5094585;28;20036;-76
2022/08/13 09:57:10;;;;;;;6.28;1.55;;;34.70;72.40;;;;;;5112914;28;20052;-77
2022/08/13 09:59:36;;;;;;;3.47;1.70;;;36.30;69.50;;;;;;5094679;28;20375;-76
2022/08/13 10:02:09;;;;;;;4.65;1.50;;;37.20;64.30;;;;;;5095166;28;20373;-77
2022/08/13 10:04:37;;;;;;;4.82;1.60;;;38.30;64.20;;;;;;5092357;28;20040;-75
2022/08/13 10:07:04;;;;;;;6.70;1.63;;;40.70;63.20;;;;;;5108467;28;20127;-75
2022/08/13 10:09:32;;;;;;;4.28;1.40;;;42.30;59.40;;;;;;5092383;28;20576;-75
2022/08/13 10:11:59;;;;;;;3.10;1.67;;;43.60;57.20;;;;;;5093432;28;20051;-75
2022/08/13 10:14:25;;;;;;;6.47;1.52;;;44.00;54.50;;;;;;5096537;28;20404;-76
2022/08/13 10:16:52;;;;;;;5.30;1.58;;;44.90;53.20;;;;;;5078336;28;20036;-75
2022/08/13 10:19:17;;;;;;;2.45;1.30;;;46.40;51.20;;;;;;5096308;28;20129;-76
2022/08/13 10:21:44;;;;;;;4.45;1.42;;;47.00;50.50;;;;;;5096622;28;20048;-75
2022/08/13 10:24:10;;;;;;;3.95;1.42;;;47.80;49.30;;;;;;5096519;28;20504;-76
2022/08/13 10:26:40;;;;;;;4.70;1.33;;;48.50;47.00;;;;;;5096692;28;20075;-76
2022/08/13 10:29:10;;;;;;;6.38;1.50;;;49.30;47.30;;;;;;5096616;28;20389;-76
2022/08/13 10:31:37;;;;;;;2.17;1.40;;;47.80;45.30;;;;;;5096887;28;20048;-75
2022/08/13 10:34:04;;;;;;;6.00;1.42;;;48.10;45.50;;;;;;5096366;28;20113;-75
2022/08/13 10:36:31;;;;;;;2.90;1.10;;;48.10;45.00;;;;;;5096278;28;20044;-74
2022/08/13 10:38:57;;;;;;;4.05;1.30;;;49.30;45.40;;;;;;5096471;28;20094;-75
2022/08/13 10:41:24;;;;;;;3.03;1.20;;;50.10;44.80;;;;;;5096378;28;20040;-75
2022/08/13 10:43:50;;;;;;;3.38;1.42;;;47.00;43.00;;;;;;5096353;28;20059;-75
2022/08/13 10:46:17;;;;;;;5.13;1.30;;;46.40;44.10;;;;;;5096176;28;20067;-76
2022/08/13 10:48:46;;;;;;;4.70;1.30;;;47.90;44.60;;;;;;5096036;28;20095;-75
2022/08/13 10:51:11;;;;;;;6.22;1.30;;;48.60;42.90;;;;;;5077882;28;20044;-75
2022/08/13 10:53:58;;;;;;;1.88;1.10;;;48.20;43.00;;;;;;5077555;28;20446;-75
2022/08/13 10:56:27;;;;;;;2.45;1.10;;;48.60;43.50;;;;;;5096081;28;20044;-75
2022/08/13 10:58:54;;;;;;;2.75;1.15;;;48.80;42.60;;;;;;5096020;28;20119;-75
2022/08/13 11:01:24;;;;;;;2.45;1.10;;;48.30;42.60;;;;;;5096064;28;20055;-75
2022/08/13 11:03:56;;;;;;;9.15;1.30;;;47.50;43.10;;;;;;5095438;28;20099;-75
2022/08/13 11:06:26;;;;;;;4.22;1.27;;;47.20;43.30;;;;;;5095120;28;20044;-75
2022/08/13 11:08:54;;;;;;;3.30;1.40;;;43.60;43.10;;;;;;5095278;28;20036;-75
2022/08/13 11:11:21;;;;;;;4.45;1.35;;;42.80;43.80;;;;;;5095406;28;20044;-75
2022/08/13 11:13:47;;;;;;;4.68;1.40;;;42.90;44.30;;;;;;5095477;28;20399;-75
2022/08/13 11:18:59;;;;;;;4.97;1.25;;;42.40;45.10;;;;;;5093488;28;20202;-74
2022/08/13 11:21:25;;;;;;;3.05;1.38;;;42.80;45.70;;;;;;5093991;28;20040;-75
2022/08/13 11:23:53;;;;;;;6.57;1.20;;;43.70;45.30;;;;;;5094058;28;20391;-75
2022/08/13 11:26:19;;;;;;;5.40;1.25;;;46.20;45.10;;;;;;5111104;28;20070;-75
2022/08/13 11:28:45;;;;;;;7.57;1.52;;;47.00;43.60;;;;;;5095326;28;20047;-75
2022/08/13 11:31:10;;;;;;;5.38;1.42;;;47.40;43.20;;;;;;5095224;28;20040;-76
2022/08/13 11:33:36;;;;;;;2.10;1.20;;;49.50;42.90;;;;;;5094604;28;20056;-74
2022/08/13 11:36:03;;;;;;;5.25;1.17;;;48.70;41.80;;;;;;5077223;28;20040;-74
2022/08/13 11:38:32;;;;;;;3.38;1.42;;;52.10;42.90;;;;;;5095650;28;20139;-76
2022/08/13 11:40:58;;;;;;;4.30;1.38;;;51.40;42.00;;;;;;5076862;28;20051;-74
2022/08/13 11:43:27;;;;;;;3.70;1.40;;;53.70;42.10;;;;;;5094898;28;20082;-74
2022/08/13 11:45:53;;;;;;;1.70;1.30;;;51.40;40.40;;;;;;5094732;28;20441;-75
2022/08/13 11:48:19;;;;;;;3.92;1.33;;;51.60;41.20;;;;;;5092853;28;20054;-75
2022/08/13 11:50:46;;;;;;;3.83;1.40;;;50.70;40.70;;;;;;5094392;28;20039;-76
2022/08/13 11:53:12;;;;;;;2.10;1.10;;;52.30;41.30;;;;;;5095130;28;20056;-76
2022/08/13 11:55:38;;;;;;;4.72;1.27;;;52.00;40.70;;;;;;5094591;28;20188;-74
2022/08/13 11:58:08;;;;;;;3.35;1.35;;;51.50;40.40;;;;;;5098315;28;20079;-76
2022/08/13 12:00:38;;;;;;;6.68;1.10;;;52.10;39.90;;;;;;5112389;28;20114;-75
2022/08/13 12:03:07;;;;;;;1.65;1.20;;;52.90;40.50;;;;;;5095095;28;20101;-76
2022/08/13 12:05:33;;;;;;;1.88;1.38;;;54.10;40.00;;;;;;5094398;28;20058;-74
2022/08/13 12:07:59;;;;;;;2.47;1.05;;;51.90;39.20;;;;;;5094941;28;20048;-74
2022/08/13 12:10:25;;;;;;;3.05;1.30;;;52.60;40.00;;;;;;5094515;28;20044;-74
2022/08/13 12:12:51;;;;;;;3.92;1.10;;;49.70;39.10;;;;;;5109910;28;20054;-74
2022/08/13 12:15:17;;;;;;;4.38;1.10;;;50.30;40.20;;;;;;5094958;28;20036;-74
2022/08/13 12:17:45;;;;;;;1.38;1.00;;;51.00;40.30;;;;;;5094550;28;20079;-73
2022/08/13 12:20:13;;;;;;;3.22;1.20;;;49.70;40.10;;;;;;5094666;28;20135;-76
2022/08/13 12:22:40;;;;;;;3.15;1.10;;;50.70;40.10;;;;;;5094079;28;20450;-74
2022/08/13 12:25:07;;;;;;;4.70;1.20;;;50.50;40.30;;;;;;5109945;28;20048;-76
2022/08/13 12:27:32;;;;;;;2.80;1.10;;;50.80;40.20;;;;;;5094062;28;20442;-74
2022/08/13 12:29:58;;;;;;;3.58;1.20;;;49.80;39.30;;;;;;5093748;28;20056;-73
2022/08/13 12:32:23;;;;;;;2.03;1.20;;;46.00;38.80;;;;;;5093979;28;20036;-73
2022/08/13 12:34:49;;;;;;;2.20;1.15;;;44.60;40.60;;;;;;5093957;28;20052;-73
2022/08/13 12:37:15;;;;;;;1.73;1.20;;;42.90;41.20;;;;;;5093872;28;20051;-75
2022/08/13 12:39:40;;;;;;;3.45;1.10;;;41.30;42.00;;;;;;5094294;28;20046;-74
2022/08/13 12:42:06;;;;;;;1.95;1.20;;;40.30;43.20;;;;;;5093611;28;20545;-75
2022/08/13 12:44:33;;;;;;;2.92;1.20;;;38.90;43.60;;;;;;5093779;28;20048;-76
2022/08/13 12:46:59;;;;;;;3.67;1.30;;;37.50;44.60;;;;;;5092867;28;20452;-75
2022/08/13 12:49:24;;;;;;;2.50;1.40;;;37.20;45.10;;;;;;5094233;28;20040;-76
2022/08/13 12:51:50;;;;;;;3.70;1.50;;;35.90;46.10;;;;;;5094043;28;20388;-75
2022/08/13 12:54:16;;;;;;;4.10;1.33;;;35.00;46.90;;;;;;5093987;28;20040;-76
2022/08/13 12:56:43;;;;;;;4.18;1.40;;;35.20;47.30;;;;;;5058833;28;20046;-75
2022/08/13 12:59:09;;;;;;;1.98;1.30;;;35.40;47.90;;;;;;5093943;28;20044;-76
2022/08/13 13:01:34;;;;;;;3.40;1.45;;;35.20;48.10;;;;;;5093530;28;20036;-76
2022/08/13 13:04:00;;;;;;;4.78;1.50;;;35.50;48.30;;;;;;5093809;28;20127;-75
2022/08/13 13:06:26;;;;;;;4.95;1.50;;;35.60;48.30;;;;;;5093765;28;20054;-75
2022/08/13 13:08:51;;;;;;;2.38;1.60;;;35.40;48.30;;;;;;5093256;28;20131;-75
2022/08/13 13:11:17;;;;;;;3.28;1.40;;;35.50;48.30;;;;;;5093326;28;20088;-75